Time;durP1;ratioP1;P1;durP2;ratioP2;P2;SDS_P1;SDS_P2;PMS_P1;PMS_P2;Temp;Humidity;BMP_temperature;BMP_pressure;BME280_temperature;BME280_humidity;BME280_pressure;Samples;Min_cycle;Max_cycle;Signal;HPM_P1;HPM_P2
2024/04/15 00:49:33;;;;;;;6.77;6.37;;;18.80;20.00;;;;;;5208521;27;20543;-77
2024/04/15 00:56:15;;;;;;;6.13;5.90;;;18.80;20.00;;;;;;5111813;28;20557;-77
2024/04/15 01:00:04;;;;;;;6.30;6.00;;;18.70;20.20;;;;;;5075553;27;20539;-77
2024/04/15 01:06:07;;;;;;;;;;;;;;;;;;;;;
2024/04/15 01:09:31;;;;;;;6.83;6.43;;;18.60;22.70;;;;;;5378658;26;21027;-77
2024/04/15 01:16:13;;;;;;;;;;;;;;;;;;;;;
2024/04/15 01:19:26;;;;;;;7.10;6.80;;;18.30;25.20;;;;;;5375147;26;20468;-78
2024/04/15 01:29:08;;;;;;;7.17;6.77;;;18.20;25.80;;;;;;5276061;21;20523;-77
2024/04/15 01:31:33;;;;;;;7.33;6.90;;;18.10;26.00;;;;;;5391578;26;20480;-77
2024/04/15 01:33:59;;;;;;;7.20;6.80;;;18.10;25.70;;;;;;5353799;26;20237;-78
2024/04/15 01:36:24;;;;;;;7.17;6.87;;;18.20;26.10;;;;;;5352842;26;20281;-78
2024/04/15 01:38:50;;;;;;;6.40;6.10;;;18.10;26.40;;;;;;5366708;26;20233;-78
2024/04/15 01:41:15;;;;;;;7.27;6.87;;;17.90;26.10;;;;;;5349356;26;20277;-78
2024/04/15 01:43:41;;;;;;;6.87;6.57;;;18.00;25.30;;;;;;5314040;26;20235;-79
2024/04/15 01:46:06;;;;;;;7.23;6.87;;;18.00;24.50;;;;;;5358668;26;20734;-77
2024/04/15 01:48:32;;;;;;;6.43;6.20;;;17.90;25.00;;;;;;5312338;26;20239;-77
2024/04/15 01:50:58;;;;;;;7.00;6.47;;;17.70;25.90;;;;;;5344267;26;20239;-77
2024/04/15 01:53:24;;;;;;;7.13;6.83;;;17.70;25.20;;;;;;5344284;26;20328;-78
2024/04/15 01:55:49;;;;;;;6.97;6.53;;;17.60;26.00;;;;;;5358218;26;20995;-78
2024/04/15 01:58:15;;;;;;;6.60;6.30;;;17.50;24.90;;;;;;5349641;26;20268;-78
2024/04/15 02:00:40;;;;;;;6.73;6.33;;;17.50;25.80;;;;;;5381835;26;20245;-78
2024/04/15 02:03:06;;;;;;;7.03;6.73;;;17.50;25.70;;;;;;5350184;26;20272;-78
2024/04/15 02:05:31;;;;;;;7.13;6.83;;;17.50;25.20;;;;;;5371013;26;20731;-78
2024/04/15 02:07:57;;;;;;;6.80;6.40;;;17.50;23.60;;;;;;5341573;26;20254;-78
2024/04/15 02:10:23;;;;;;;6.47;6.17;;;17.60;23.60;;;;;;5335778;26;20600;-77
2024/04/15 02:12:48;;;;;;;7.27;6.87;;;17.60;22.60;;;;;;5339448;26;20248;-79
2024/04/15 02:15:15;;;;;;;6.70;6.40;;;17.60;22.70;;;;;;5374857;26;20275;-77
2024/04/15 02:17:41;;;;;;;7.10;6.80;;;17.60;22.30;;;;;;5373176;26;20796;-77
2024/04/15 02:20:07;;;;;;;6.50;6.20;;;17.60;22.00;;;;;;5368323;26;20488;-77
2024/04/15 02:22:32;;;;;;;6.97;6.60;;;17.60;21.90;;;;;;5369436;26;20565;-79
2024/04/15 02:24:58;;;;;;;6.70;6.50;;;17.60;22.20;;;;;;5370185;26;20539;-78
2024/04/15 02:27:26;;;;;;;6.07;5.87;;;17.50;22.30;;;;;;5335729;26;20278;-78
2024/04/15 02:29:52;;;;;;;6.33;6.03;;;17.60;21.00;;;;;;5370893;26;20250;-78
2024/04/15 02:32:18;;;;;;;6.23;6.03;;;17.50;22.20;;;;;;5367526;26;20465;-78
2024/04/15 02:34:44;;;;;;;6.03;5.80;;;17.50;22.30;;;;;;5372983;26;20935;-78
2024/04/15 02:37:10;;;;;;;6.53;6.13;;;17.40;20.90;;;;;;5369525;26;20470;-77
2024/04/15 02:39:35;;;;;;;6.43;6.07;;;17.40;21.30;;;;;;5345046;26;20246;-78
2024/04/15 02:42:01;;;;;;;6.50;6.20;;;17.30;22.10;;;;;;5374627;26;20235;-78
2024/04/15 02:44:26;;;;;;;6.83;6.53;;;17.20;21.20;;;;;;5377221;26;20268;-78
2024/04/15 02:46:52;;;;;;;6.87;6.37;;;17.30;22.10;;;;;;5375524;26;20339;-78
2024/04/15 02:49:18;;;;;;;6.57;6.27;;;17.20;21.50;;;;;;5375110;26;20235;-77
2024/04/15 02:51:43;;;;;;;6.93;6.53;;;17.10;21.30;;;;;;5380368;26;20272;-78
2024/04/15 02:54:09;;;;;;;6.13;5.93;;;17.00;21.50;;;;;;5381194;26;20285;-78
2024/04/15 02:56:36;;;;;;;6.70;6.30;;;17.00;21.70;;;;;;5341611;26;20243;-78
2024/04/15 02:59:01;;;;;;;6.80;6.50;;;17.00;21.70;;;;;;5369768;26;20230;-78
2024/04/15 03:01:27;;;;;;;6.30;5.90;;;17.10;21.20;;;;;;5372207;26;20460;-78
2024/04/15 03:03:52;;;;;;;7.33;6.83;;;17.10;21.80;;;;;;5321068;26;20601;-78
2024/04/15 03:06:19;;;;;;;7.47;7.07;;;17.20;22.00;;;;;;5316135;26;20259;-78
2024/04/15 03:08:46;;;;;;;7.23;6.73;;;17.10;21.40;;;;;;5346631;26;20231;-78
2024/04/15 03:11:11;;;;;;;7.30;6.80;;;17.10;22.30;;;;;;5345957;26;21020;-77
2024/04/15 03:13:37;;;;;;;7.30;6.93;;;17.10;23.40;;;;;;5316223;26;20518;-78
2024/04/15 03:16:03;;;;;;;7.27;6.80;;;17.10;22.30;;;;;;5346609;26;20231;-78
2024/04/15 03:18:28;;;;;;;7.87;7.40;;;17.10;22.00;;;;;;5345786;26;20466;-78
2024/04/15 03:20:54;;;;;;;7.97;7.67;;;17.20;21.70;;;;;;5326073;26;20585;-78
2024/04/15 03:23:20;;;;;;;7.80;7.40;;;17.30;21.70;;;;;;5379067;26;20226;-77
2024/04/15 03:25:46;;;;;;;8.20;7.73;;;17.20;21.90;;;;;;5377909;26;21009;-77
2024/04/15 03:28:11;;;;;;;7.47;7.00;;;17.10;22.40;;;;;;5380222;26;20276;-80
2024/04/15 03:30:36;;;;;;;7.60;7.13;;;17.00;22.80;;;;;;5350757;26;20729;-78
2024/04/15 03:33:02;;;;;;;7.63;7.20;;;16.90;23.20;;;;;;5379161;26;20312;-78
2024/04/15 03:35:28;;;;;;;7.57;7.17;;;16.90;23.00;;;;;;5379862;26;20729;-78
2024/04/15 03:37:53;;;;;;;6.97;6.67;;;17.00;23.10;;;;;;5380509;26;20347;-78
2024/04/15 03:40:19;;;;;;;7.00;6.70;;;17.00;22.00;;;;;;5366564;26;20234;-76
2024/04/15 03:42:44;;;;;;;7.50;7.20;;;17.10;21.50;;;;;;5380586;26;20277;-77
2024/04/15 03:45:09;;;;;;;7.80;7.40;;;17.10;21.30;;;;;;5380792;26;20230;-77
2024/04/15 03:47:35;;;;;;;7.10;6.67;;;17.10;20.60;;;;;;5348541;26;20314;-77
2024/04/15 03:50:01;;;;;;;6.87;6.57;;;17.00;21.00;;;;;;5379918;26;20234;-78
2024/04/15 03:52:26;;;;;;;7.50;7.10;;;17.00;20.70;;;;;;5380452;26;20268;-78
2024/04/15 03:54:52;;;;;;;7.43;7.13;;;17.00;20.60;;;;;;5380098;26;20694;-77
2024/04/15 03:57:17;;;;;;;7.77;7.37;;;17.10;20.90;;;;;;5345954;26;20227;-78
2024/04/15 03:59:43;;;;;;;7.40;7.00;;;17.10;20.70;;;;;;5315371;26;20273;-77
2024/04/15 04:02:08;;;;;;;7.63;7.33;;;17.10;20.80;;;;;;5349163;26;20281;-77
2024/04/15 04:04:35;;;;;;;7.73;7.43;;;17.10;21.80;;;;;;5379374;26;20290;-78
2024/04/15 04:07:01;;;;;;;8.07;7.57;;;17.10;21.20;;;;;;5316907;26;20247;-77
2024/04/15 04:09:27;;;;;;;7.90;7.50;;;17.00;21.30;;;;;;5343787;26;20509;-79
2024/04/15 04:11:53;;;;;;;8.23;7.80;;;17.10;20.90;;;;;;5344746;26;20525;-79
2024/04/15 04:14:18;;;;;;;7.73;7.43;;;17.10;20.50;;;;;;5314822;26;20239;-80
2024/04/15 04:16:44;;;;;;;7.80;7.40;;;17.20;19.80;;;;;;5345180;26;20693;-79
2024/04/15 04:19:09;;;;;;;8.30;7.80;;;17.20;19.80;;;;;;5376367;26;20226;-77
2024/04/15 04:21:35;;;;;;;7.90;7.40;;;17.10;20.90;;;;;;5379861;26;20230;-78
2024/04/15 04:24:00;;;;;;;8.23;7.73;;;17.20;20.30;;;;;;5348746;26;20695;-77
2024/04/15 04:26:26;;;;;;;8.27;7.87;;;17.20;20.10;;;;;;5379945;26;20347;-77
2024/04/15 04:28:51;;;;;;;7.50;7.10;;;17.20;19.80;;;;;;5348748;26;20610;-78
2024/04/15 04:31:17;;;;;;;7.87;7.57;;;17.20;19.80;;;;;;5379521;26;20733;-77
2024/04/15 04:33:43;;;;;;;7.90;7.50;;;17.20;19.80;;;;;;5348627;26;20733;-77
2024/04/15 04:36:09;;;;;;;7.33;6.90;;;17.20;19.80;;;;;;5379586;26;20230;-77
2024/04/15 04:38:34;;;;;;;7.30;7.00;;;17.20;19.80;;;;;;5378807;26;20722;-77
2024/04/15 04:41:01;;;;;;;7.53;7.23;;;17.20;19.80;;;;;;5380308;26;20721;-77
2024/04/15 04:43:27;;;;;;;8.30;7.70;;;17.20;19.80;;;;;;5381789;26;20242;-78
2024/04/15 04:45:54;;;;;;;7.50;7.03;;;17.20;19.80;;;;;;5380959;26;20464;-78
2024/04/15 04:48:20;;;;;;;7.27;6.97;;;17.20;19.80;;;;;;5380568;26;20591;-77
2024/04/15 04:50:46;;;;;;;7.03;6.73;;;17.20;19.80;;;;;;5381354;26;20473;-78
2024/04/15 04:53:12;;;;;;;7.20;6.90;;;17.20;19.80;;;;;;5349582;26;20824;-78
2024/04/15 04:55:38;;;;;;;8.00;7.50;;;17.20;19.80;;;;;;5380268;26;20456;-77
2024/04/15 04:58:06;;;;;;;7.80;7.50;;;17.20;19.80;;;;;;5379149;26;20298;-78
2024/04/15 05:00:33;;;;;;;7.90;7.50;;;17.20;19.80;;;;;;5369107;26;20234;-78
2024/04/15 05:02:58;;;;;;;7.63;7.23;;;17.20;20.30;;;;;;5381324;26;20472;-79
2024/04/15 05:05:24;;;;;;;9.30;8.00;;;17.10;20.30;;;;;;5359877;26;20817;-78
2024/04/15 05:07:50;;;;;;;7.43;7.13;;;17.10;20.30;;;;;;5346402;26;20278;-79
2024/04/15 05:10:16;;;;;;;7.50;7.13;;;17.10;20.50;;;;;;5347024;26;20587;-78
2024/04/15 05:12:41;;;;;;;8.47;7.80;;;17.00;20.00;;;;;;5374871;26;20784;-79
2024/04/15 05:15:07;;;;;;;5.93;5.63;;;17.00;21.70;;;;;;5381944;26;20234;-78
2024/04/15 05:17:33;;;;;;;7.30;7.00;;;17.00;20.80;;;;;;5380599;26;20230;-78
2024/04/15 05:19:59;;;;;;;8.40;7.90;;;16.80;22.80;;;;;;5380228;26;20531;-78
2024/04/15 05:22:24;;;;;;;8.70;8.30;;;16.60;24.20;;;;;;5349255;26;20277;-79
2024/04/15 05:24:50;;;;;;;8.30;7.90;;;16.60;23.00;;;;;;5381173;26;20721;-78
2024/04/15 05:27:15;;;;;;;8.27;7.87;;;16.70;22.40;;;;;;5365677;26;20301;-78
2024/04/15 05:29:41;;;;;;;8.20;7.80;;;16.70;22.90;;;;;;5379948;26;20226;-79
2024/04/15 05:32:06;;;;;;;8.33;7.77;;;16.70;24.10;;;;;;5384035;26;20621;-78
2024/04/15 05:34:33;;;;;;;8.03;7.70;;;16.70;22.70;;;;;;5384526;26;20226;-78
2024/04/15 05:36:59;;;;;;;7.90;7.57;;;16.80;22.40;;;;;;5383819;26;20780;-77
2024/04/15 05:39:25;;;;;;;8.20;7.40;;;16.80;22.50;;;;;;5383261;26;20476;-79
2024/04/15 05:41:50;;;;;;;8.13;7.73;;;16.80;23.50;;;;;;5384656;26;20749;-80
2024/04/15 05:44:16;;;;;;;7.53;7.23;;;16.70;23.60;;;;;;5372117;26;20460;-77
2024/04/15 05:46:49;;;;;;;7.90;7.60;;;16.70;22.70;;;;;;5367309;26;20272;-78
2024/04/15 05:49:14;;;;;;;8.03;7.50;;;16.70;23.60;;;;;;5335634;26;20251;-79
2024/04/15 05:51:40;;;;;;;8.07;7.70;;;16.70;22.10;;;;;;5382459;26;20506;-77
2024/04/15 05:54:05;;;;;;;7.30;6.90;;;16.60;22.30;;;;;;5381794;26;20703;-78
2024/04/15 05:56:31;;;;;;;7.13;6.73;;;16.60;21.40;;;;;;5367619;26;20338;-77
2024/04/15 05:58:56;;;;;;;7.93;7.53;;;16.40;23.00;;;;;;5381932;26;20230;-78
2024/04/15 06:01:22;;;;;;;7.17;6.77;;;16.50;22.80;;;;;;5383721;26;20230;-78
2024/04/15 06:03:47;;;;;;;6.97;6.67;;;16.50;19.30;;;;;;5385744;26;20227;-79
2024/04/15 06:06:13;;;;;;;6.20;5.93;;;16.50;19.30;;;;;;5367643;26;20284;-78
2024/04/15 06:08:39;;;;;;;7.13;6.53;;;16.40;19.20;;;;;;5357609;26;20285;-79
2024/04/15 06:11:04;;;;;;;7.17;6.77;;;16.40;19.10;;;;;;5363112;26;20230;-78
2024/04/15 06:13:30;;;;;;;7.67;7.27;;;16.30;19.20;;;;;;5365068;26;20453;-79
2024/04/15 06:15:55;;;;;;;7.50;7.10;;;16.30;19.20;;;;;;5364719;26;20231;-78
2024/04/15 06:18:21;;;;;;;7.37;6.77;;;16.30;19.40;;;;;;5368008;26;20234;-78
2024/04/15 06:20:46;;;;;;;7.87;7.47;;;16.20;19.80;;;;;;5382993;26;20339;-78
2024/04/15 06:23:12;;;;;;;7.70;7.30;;;16.20;19.10;;;;;;5364272;26;20222;-79
2024/04/15 06:25:39;;;;;;;7.00;6.60;;;16.20;19.10;;;;;;5360942;26;20235;-78
2024/04/15 06:28:04;;;;;;;7.30;7.00;;;16.20;19.10;;;;;;5361328;26;20549;-79
2024/04/15 06:30:30;;;;;;;7.93;7.53;;;16.20;19.10;;;;;;5349353;26;20520;-77
2024/04/15 06:32:55;;;;;;;7.73;7.07;;;16.10;19.50;;;;;;5368512;26;20236;-79
2024/04/15 06:35:21;;;;;;;7.47;6.97;;;15.90;20.00;;;;;;5361196;26;20569;-78
2024/04/15 06:37:46;;;;;;;7.10;6.70;;;15.70;20.60;;;;;;5360760;26;20231;-78
2024/04/15 06:40:12;;;;;;;7.57;7.03;;;15.70;21.40;;;;;;5367331;26;20280;-78
2024/04/15 06:42:38;;;;;;;7.60;7.20;;;15.50;21.50;;;;;;5366172;26;20569;-78
2024/04/15 06:45:03;;;;;;;8.30;7.80;;;15.60;21.40;;;;;;5381874;26;20243;-78
2024/04/15 06:47:29;;;;;;;7.77;7.33;;;15.70;21.30;;;;;;5377499;26;20278;-78
2024/04/15 06:49:55;;;;;;;7.40;6.90;;;15.70;21.40;;;;;;5343574;26;20250;-78
2024/04/15 06:52:21;;;;;;;8.03;7.60;;;15.90;21.00;;;;;;5366296;26;20788;-77
2024/04/15 06:54:46;;;;;;;8.53;8.03;;;15.90;20.90;;;;;;5344505;26;20476;-78
2024/04/15 06:57:12;;;;;;;8.00;7.40;;;16.00;20.90;;;;;;5379473;26;20230;-78
2024/04/15 06:59:37;;;;;;;8.27;7.70;;;16.00;20.90;;;;;;5378084;26;20719;-77
2024/04/15 07:02:04;;;;;;;9.00;8.33;;;16.00;20.90;;;;;;5356315;26;20349;-79
2024/04/15 07:04:29;;;;;;;8.00;7.50;;;16.00;21.00;;;;;;5368251;26;20265;-78
2024/04/15 07:06:55;;;;;;;7.27;7.00;;;16.10;20.80;;;;;;5350809;26;20472;-79
2024/04/15 07:09:20;;;;;;;7.43;7.10;;;16.20;20.90;;;;;;5363199;26;20238;-78
2024/04/15 07:11:46;;;;;;;11.07;7.50;;;16.20;20.80;;;;;;5362089;26;20235;-78
2024/04/15 07:14:12;;;;;;;9.00;8.13;;;16.10;20.90;;;;;;5377590;26;20269;-78
2024/04/15 07:16:37;;;;;;;7.87;7.17;;;16.00;21.20;;;;;;5373220;26;20290;-78
2024/04/15 07:19:03;;;;;;;7.83;7.47;;;15.80;21.60;;;;;;5361129;26;20235;-80
2024/04/15 07:21:28;;;;;;;7.77;7.27;;;15.80;21.50;;;;;;5343753;26;20247;-78
2024/04/15 07:23:54;;;;;;;8.20;7.73;;;15.70;21.40;;;;;;5315424;26;20240;-77
2024/04/15 07:26:19;;;;;;;8.80;8.13;;;15.50;21.60;;;;;;5345973;26;20227;-78
2024/04/15 07:28:45;;;;;;;8.90;8.40;;;15.40;21.40;;;;;;5350929;26;20687;-78
2024/04/15 07:31:10;;;;;;;9.13;8.50;;;15.40;21.40;;;;;;5322020;26;20313;-79
2024/04/15 07:33:36;;;;;;;8.07;7.67;;;15.50;21.60;;;;;;5384871;26;20230;-79
2024/04/15 07:36:03;;;;;;;8.17;7.43;;;15.60;21.50;;;;;;5384946;26;20588;-79
2024/04/15 07:38:29;;;;;;;8.70;8.30;;;15.50;21.80;;;;;;5384774;26;20230;-77
2024/04/15 07:40:58;;;;;;;9.97;9.27;;;15.50;21.70;;;;;;5353067;26;21063;-78
2024/04/15 07:43:24;;;;;;;9.10;8.50;;;15.50;21.90;;;;;;5353331;26;20242;-78
2024/04/15 07:45:49;;;;;;;9.27;8.67;;;15.60;21.70;;;;;;5385121;26;20456;-79
2024/04/15 07:48:15;;;;;;;9.23;8.73;;;15.70;21.30;;;;;;5352883;26;20242;-79
2024/04/15 07:50:41;;;;;;;9.40;8.80;;;15.80;21.10;;;;;;5353218;26;20277;-80
2024/04/15 07:53:07;;;;;;;8.00;7.60;;;15.80;21.10;;;;;;5383502;26;20468;-78
2024/04/15 07:55:32;;;;;;;9.23;8.63;;;15.90;20.90;;;;;;5383840;26;20542;-78
2024/04/15 07:57:58;;;;;;;8.63;8.23;;;15.90;21.00;;;;;;5383611;26;20222;-78
2024/04/15 08:00:23;;;;;;;9.17;8.27;;;15.90;21.10;;;;;;5384244;26;20347;-78
2024/04/15 08:02:49;;;;;;;9.50;8.90;;;15.90;22.30;;;;;;5383519;26;20269;-78
2024/04/15 08:05:14;;;;;;;9.43;8.73;;;15.90;21.80;;;;;;5383988;26;20230;-78
2024/04/15 08:07:40;;;;;;;9.80;9.10;;;15.90;22.40;;;;;;5381933;26;20357;-78
2024/04/15 08:10:06;;;;;;;9.27;8.77;;;15.90;22.10;;;;;;5384062;26;20238;-78
2024/04/15 08:12:31;;;;;;;9.47;8.97;;;16.00;22.60;;;;;;5384559;26;20659;-76
2024/04/15 08:14:57;;;;;;;9.70;9.10;;;15.80;24.10;;;;;;5386943;26;20230;-78
2024/04/15 08:17:23;;;;;;;9.70;8.97;;;15.80;23.40;;;;;;5386211;26;20238;-78
2024/04/15 08:19:48;;;;;;;9.83;9.13;;;15.90;23.00;;;;;;5384709;26;20522;-78
2024/04/15 08:22:14;;;;;;;9.70;9.30;;;15.90;23.20;;;;;;5353047;26;20238;-77
2024/04/15 08:24:39;;;;;;;9.13;8.67;;;15.90;23.30;;;;;;5352951;26;20590;-78
2024/04/15 08:27:05;;;;;;;10.10;9.60;;;16.00;22.90;;;;;;5353997;26;20268;-79
2024/04/15 08:29:30;;;;;;;10.80;10.30;;;16.00;24.50;;;;;;5383406;26;20307;-77
2024/04/15 08:31:56;;;;;;;11.13;10.43;;;15.70;27.10;;;;;;5383992;26;20277;-80
2024/04/15 08:34:22;;;;;;;9.90;9.40;;;15.50;26.90;;;;;;5382194;26;20781;-78
2024/04/15 08:36:49;;;;;;;10.10;9.60;;;15.50;26.90;;;;;;5367285;26;20284;-78
2024/04/15 08:39:14;;;;;;;12.10;11.20;;;15.50;26.90;;;;;;5348917;26;20252;-77
2024/04/15 08:42:05;;;;;;;11.13;10.53;;;15.60;27.00;;;;;;5382402;26;20452;-79
2024/04/15 08:44:33;;;;;;;10.97;10.47;;;15.70;25.90;;;;;;5351028;26;20234;-80
2024/04/15 08:47:02;;;;;;;11.40;10.80;;;15.60;27.00;;;;;;5327874;26;21069;-79
2024/04/15 08:49:28;;;;;;;10.37;9.87;;;15.60;27.00;;;;;;5381539;26;20525;-79
2024/04/15 08:51:56;;;;;;;10.73;10.23;;;15.70;25.80;;;;;;5383492;26;20520;-79
2024/04/15 08:54:22;;;;;;;11.53;11.03;;;15.60;26.20;;;;;;5338858;26;20513;-79
2024/04/15 08:56:50;;;;;;;11.17;10.57;;;15.50;26.90;;;;;;5361396;26;20466;-80
2024/04/15 08:59:17;;;;;;;11.73;11.03;;;15.50;26.50;;;;;;5318825;26;20232;-79
2024/04/15 09:01:43;;;;;;;11.90;11.30;;;15.60;26.40;;;;;;5348289;26;20470;-79
2024/04/15 09:04:09;;;;;;;12.30;11.60;;;15.70;25.50;;;;;;5375713;26;20524;-77
2024/04/15 09:06:35;;;;;;;11.57;10.57;;;15.80;24.70;;;;;;5375343;26;20456;-77
2024/04/15 09:09:00;;;;;;;11.97;11.30;;;15.90;25.10;;;;;;5372212;26;20744;-77
2024/04/15 09:11:34;;;;;;;11.00;10.40;;;16.00;24.50;;;;;;5339268;26;20292;-78
2024/04/15 09:13:59;;;;;;;10.53;10.03;;;16.00;24.30;;;;;;5378606;26;20464;-78
2024/04/15 09:16:25;;;;;;;11.00;10.30;;;16.10;23.80;;;;;;5379843;26;20449;-78
2024/04/15 09:18:51;;;;;;;9.97;9.47;;;16.10;23.20;;;;;;5350880;26;20243;-78
2024/04/15 09:21:22;;;;;;;10.37;9.47;;;16.00;23.50;;;;;;5348822;26;20454;-79
2024/04/15 09:23:49;;;;;;;10.40;9.70;;;16.10;24.20;;;;;;5337982;26;20270;-77
2024/04/15 09:26:15;;;;;;;10.73;10.03;;;16.10;23.80;;;;;;5377050;26;20457;-78
2024/04/15 09:28:40;;;;;;;10.10;9.57;;;16.00;25.00;;;;;;5343908;26;20551;-77
2024/04/15 09:31:06;;;;;;;10.30;9.60;;;15.80;26.10;;;;;;5369593;26;20259;-78
2024/04/15 09:33:35;;;;;;;10.40;9.90;;;15.90;25.30;;;;;;5378563;26;20328;-78
2024/04/15 09:36:00;;;;;;;11.70;10.80;;;15.90;24.90;;;;;;5386815;26;20464;-77
2024/04/15 09:38:27;;;;;;;11.00;10.37;;;15.90;25.60;;;;;;5383689;26;20472;-77
2024/04/15 09:40:52;;;;;;;9.90;9.30;;;15.90;25.10;;;;;;5373604;26;20234;-77
2024/04/15 09:43:18;;;;;;;10.13;9.47;;;16.00;24.10;;;;;;5365529;26;20540;-77
2024/04/15 09:45:44;;;;;;;10.47;9.80;;;16.00;24.50;;;;;;5352476;26;20281;-77
2024/04/15 09:48:16;;;;;;;9.00;8.50;;;16.00;23.80;;;;;;5382541;26;20238;-77
2024/04/15 09:50:46;;;;;;;9.07;8.57;;;16.10;23.50;;;;;;5363201;26;20473;-77
2024/04/15 09:53:22;;;;;;;9.10;8.60;;;16.20;23.20;;;;;;5352052;26;20534;-79
2024/04/15 09:55:53;;;;;;;9.23;8.63;;;16.20;23.10;;;;;;5347445;26;20462;-78
2024/04/15 09:58:26;;;;;;;8.93;8.47;;;16.30;22.90;;;;;;5345797;26;20480;-77
2024/04/15 10:00:53;;;;;;;8.30;7.80;;;16.20;22.80;;;;;;5382158;26;20468;-77
2024/04/15 10:03:21;;;;;;;9.63;8.90;;;16.20;22.80;;;;;;5347178;26;20538;-77
2024/04/15 10:05:52;;;;;;;8.83;8.20;;;16.20;22.60;;;;;;5377586;26;20528;-77
2024/04/15 10:08:19;;;;;;;7.80;7.20;;;16.20;22.60;;;;;;5377941;26;20853;-78
2024/04/15 10:10:45;;;;;;;8.40;7.70;;;16.30;22.30;;;;;;5381039;26;21004;-78
2024/04/15 10:13:12;;;;;;;8.10;7.70;;;16.40;22.40;;;;;;5380990;26;20554;-77
2024/04/15 10:15:39;;;;;;;8.13;7.63;;;16.40;22.10;;;;;;5379356;26;20480;-77
2024/04/15 10:18:13;;;;;;;7.30;7.00;;;16.40;22.10;;;;;;5382630;26;20464;-78
2024/04/15 10:20:43;;;;;;;7.27;6.97;;;16.50;21.80;;;;;;5383853;26;20480;-78
2024/04/15 10:23:13;;;;;;;7.67;7.37;;;16.60;21.50;;;;;;5380299;26;20480;-78
2024/04/15 10:25:39;;;;;;;8.10;7.80;;;16.80;21.20;;;;;;5371615;26;20576;-78
2024/04/15 10:28:09;;;;;;;7.87;7.33;;;16.80;20.80;;;;;;5371858;26;20472;-78
2024/04/15 10:30:36;;;;;;;8.80;8.23;;;17.00;21.10;;;;;;5376281;26;20536;-77
2024/04/15 10:33:07;;;;;;;8.20;7.70;;;17.00;20.30;;;;;;5381023;26;20528;-78
2024/04/15 10:35:37;;;;;;;7.77;7.30;;;17.00;19.90;;;;;;5343439;26;20893;-79
2024/04/15 10:38:05;;;;;;;8.63;8.03;;;16.90;19.60;;;;;;5354156;26;20470;-77
2024/04/15 10:40:32;;;;;;;9.50;8.90;;;16.80;19.70;;;;;;5342548;26;20823;-81
2024/04/15 10:42:58;;;;;;;8.40;8.00;;;16.70;19.40;;;;;;5377680;26;20476;-77
2024/04/15 10:45:26;;;;;;;8.13;7.73;;;16.70;19.50;;;;;;5381183;26;20564;-77
2024/04/15 10:47:55;;;;;;;9.90;9.23;;;16.70;20.00;;;;;;5359448;26;20604;-77
2024/04/15 10:50:21;;;;;;;8.37;8.07;;;16.70;20.20;;;;;;5378500;26;20464;-77
2024/04/15 10:52:48;;;;;;;8.90;8.43;;;16.80;20.60;;;;;;5389727;26;20472;-78
2024/04/15 10:55:15;;;;;;;9.00;8.50;;;16.80;19.80;;;;;;5389897;26;20507;-77
2024/04/15 10:57:41;;;;;;;8.87;8.20;;;16.80;20.20;;;;;;5352394;26;20521;-78
2024/04/15 11:00:13;;;;;;;9.17;8.67;;;16.80;20.20;;;;;;5382719;26;20938;-77
2024/04/15 11:02:47;;;;;;;9.63;9.00;;;16.80;19.50;;;;;;5380934;26;20468;-76
2024/04/15 11:05:14;;;;;;;8.30;7.90;;;16.70;20.20;;;;;;5351233;26;20487;-77
2024/04/15 11:07:43;;;;;;;9.57;8.73;;;16.70;19.70;;;;;;5354454;26;20456;-79
2024/04/15 11:10:11;;;;;;;8.90;8.50;;;16.70;20.30;;;;;;5380967;26;20480;-76
2024/04/15 11:12:38;;;;;;;8.00;7.70;;;16.80;20.10;;;;;;5371044;26;20462;-78
2024/04/15 11:15:11;;;;;;;9.53;8.83;;;16.90;19.70;;;;;;5360700;26;20495;-77
2024/04/15 11:17:52;;;;;;;8.60;8.10;;;16.90;20.10;;;;;;5381056;26;20468;-77
2024/04/15 11:20:19;;;;;;;9.43;8.73;;;16.90;19.60;;;;;;5383371;26;20531;-78
2024/04/15 11:22:46;;;;;;;9.70;9.10;;;17.00;19.60;;;;;;5352806;26;20520;-78
2024/04/15 11:25:12;;;;;;;9.07;8.57;;;17.10;19.70;;;;;;5382220;26;21064;-78
2024/04/15 11:27:41;;;;;;;9.03;8.53;;;17.20;19.80;;;;;;5384644;26;20469;-78
2024/04/15 11:30:08;;;;;;;9.50;8.90;;;17.10;19.30;;;;;;5384035;26;20477;-76
2024/04/15 11:32:33;;;;;;;8.37;7.90;;;17.10;19.50;;;;;;5384293;26;20524;-77
2024/04/15 11:35:02;;;;;;;9.50;9.00;;;17.10;19.00;;;;;;5384818;26;20468;-77
2024/04/15 11:37:28;;;;;;;8.63;8.10;;;17.10;18.90;;;;;;5384365;26;20284;-78
2024/04/15 11:39:55;;;;;;;9.37;8.97;;;17.10;18.50;;;;;;5383296;26;20468;-77
2024/04/15 11:42:21;;;;;;;8.50;8.10;;;17.10;18.70;;;;;;5353569;26;20238;-77
2024/04/15 11:44:46;;;;;;;9.10;8.40;;;17.10;18.60;;;;;;5382982;26;20518;-76
2024/04/15 11:47:15;;;;;;;8.20;7.80;;;17.10;18.80;;;;;;5380867;26;20234;-77
2024/04/15 11:49:43;;;;;;;8.70;8.10;;;17.20;18.40;;;;;;5384477;26;20270;-77
2024/04/15 11:52:09;;;;;;;8.60;8.20;;;17.20;18.40;;;;;;5384832;26;20456;-77
2024/04/15 11:54:36;;;;;;;8.90;8.30;;;17.20;18.70;;;;;;5350036;26;20476;-77
2024/04/15 11:57:03;;;;;;;9.00;8.53;;;17.10;19.10;;;;;;5381858;26;20238;-78
2024/04/15 11:59:28;;;;;;;9.53;8.73;;;16.90;21.20;;;;;;5348207;26;20803;-77
2024/04/15 12:01:57;;;;;;;9.30;8.80;;;16.70;22.40;;;;;;5357030;26;20540;-79
2024/04/15 12:04:24;;;;;;;8.17;7.87;;;16.50;23.50;;;;;;5367818;26;20314;-76
2024/04/15 12:06:53;;;;;;;10.33;9.50;;;16.50;26.10;;;;;;5366717;26;20563;-77
2024/04/15 12:09:20;;;;;;;9.83;9.23;;;16.40;28.90;;;;;;5362886;26;20466;-77
2024/04/15 12:11:48;;;;;;;10.20;9.43;;;16.30;30.60;;;;;;5348271;26;20529;-78
2024/04/15 12:14:13;;;;;;;9.03;8.43;;;16.30;31.90;;;;;;5363264;26;20456;-79
2024/04/15 12:16:39;;;;;;;8.90;8.50;;;16.40;30.60;;;;;;5340053;26;20535;-77
2024/04/15 12:19:05;;;;;;;9.17;8.27;;;16.50;31.00;;;;;;5377827;26;20726;-78
2024/04/15 12:21:30;;;;;;;9.57;9.00;;;16.60;32.00;;;;;;5350524;26;20536;-77
2024/04/15 12:23:56;;;;;;;10.70;10.10;;;16.50;29.50;;;;;;5368143;26;20227;-77
2024/04/15 12:26:23;;;;;;;10.53;10.00;;;16.60;30.30;;;;;;5346719;26;20242;-77
2024/04/15 12:28:49;;;;;;;10.33;9.63;;;16.70;28.50;;;;;;5371288;26;20235;-77
2024/04/15 12:31:14;;;;;;;10.13;9.53;;;16.60;27.80;;;;;;5344225;26;20529;-77
2024/04/15 12:33:40;;;;;;;10.17;9.57;;;16.70;27.70;;;;;;5375008;26;20456;-77
2024/04/15 12:36:08;;;;;;;10.23;9.63;;;16.80;27.50;;;;;;5380974;26;20230;-77
2024/04/15 12:38:34;;;;;;;10.13;9.63;;;16.80;25.90;;;;;;5343002;26;20242;-76
2024/04/15 12:40:59;;;;;;;9.30;8.57;;;16.80;25.20;;;;;;5342786;26;20523;-78
2024/04/15 12:43:25;;;;;;;10.53;9.60;;;16.80;24.30;;;;;;5373256;26;20226;-78
2024/04/15 12:45:50;;;;;;;9.50;9.00;;;16.90;25.80;;;;;;5371701;26;20226;-77
2024/04/15 12:48:18;;;;;;;11.10;9.90;;;16.80;24.50;;;;;;5377436;26;20729;-77
2024/04/15 12:50:44;;;;;;;10.57;9.57;;;16.80;27.70;;;;;;5365253;26;20239;-79
2024/04/15 12:53:11;;;;;;;10.80;10.20;;;16.80;27.80;;;;;;5361091;26;20598;-78
2024/04/15 12:55:37;;;;;;;12.53;10.93;;;16.80;31.80;;;;;;5355973;26;20520;-78
2024/04/15 12:58:04;;;;;;;10.90;10.10;;;16.80;30.10;;;;;;5329650;26;20477;-78
2024/04/15 13:00:30;;;;;;;10.53;10.03;;;16.70;29.40;;;;;;5332867;26;20476;-77
2024/04/15 13:02:55;;;;;;;11.60;10.80;;;16.70;29.40;;;;;;5371617;26;20468;-78
2024/04/15 13:05:21;;;;;;;10.37;9.67;;;16.60;28.60;;;;;;5382037;26;21039;-77
2024/04/15 13:07:46;;;;;;;11.97;10.90;;;16.70;31.00;;;;;;5371500;26;20230;-77
2024/04/15 13:10:12;;;;;;;11.67;10.83;;;16.80;30.90;;;;;;5374131;26;20231;-78
2024/04/15 13:12:38;;;;;;;9.97;9.27;;;16.80;32.70;;;;;;5373249;26;20230;-79
2024/04/15 13:15:04;;;;;;;11.47;10.50;;;16.80;33.40;;;;;;5327854;26;20282;-79
2024/04/15 13:17:30;;;;;;;9.57;9.07;;;16.90;34.70;;;;;;5342924;26;21276;-77
2024/04/15 13:19:55;;;;;;;9.93;9.23;;;16.90;32.20;;;;;;5379050;26;20469;-76
2024/04/15 13:22:21;;;;;;;9.37;8.87;;;16.90;27.90;;;;;;5366116;26;20231;-76
2024/04/15 13:24:47;;;;;;;9.53;9.03;;;16.90;27.90;;;;;;5362873;26;20676;-77
2024/04/15 13:27:12;;;;;;;9.97;9.20;;;16.90;28.00;;;;;;5369892;26;20286;-78
2024/04/15 13:29:38;;;;;;;9.93;9.07;;;17.10;27.30;;;;;;5364183;26;20317;-78
2024/04/15 13:32:05;;;;;;;10.30;9.70;;;17.10;26.70;;;;;;5334202;26;20265;-77
2024/04/15 13:34:30;;;;;;;9.70;8.90;;;17.10;26.60;;;;;;5336454;26;20333;-78
2024/04/15 13:36:56;;;;;;;9.90;9.40;;;17.20;25.50;;;;;;5360176;26;20477;-78
2024/04/15 13:39:24;;;;;;;9.53;8.93;;;17.20;25.50;;;;;;5360500;26;20243;-79
2024/04/15 13:41:51;;;;;;;9.77;8.80;;;17.20;24.40;;;;;;5375508;26;20227;-77
2024/04/15 13:44:17;;;;;;;9.83;9.23;;;17.20;24.60;;;;;;5347437;26;20460;-77
2024/04/15 13:46:42;;;;;;;11.77;10.87;;;17.30;25.90;;;;;;5360352;26;20458;-77
2024/04/15 13:49:08;;;;;;;10.00;9.37;;;17.40;23.10;;;;;;5326741;26;20544;-77
2024/04/15 13:51:34;;;;;;;11.00;10.30;;;17.40;22.00;;;;;;5359987;26;20232;-77